Time;durP1;ratioP1;P1;durP2;ratioP2;P2;SDS_P1;SDS_P2;PMS_P1;PMS_P2;Temp;Humidity;BMP_temperature;BMP_pressure;BME280_temperature;BME280_humidity;BME280_pressure;Samples;Min_cycle;Max_cycle;Signal;HPM_P1;HPM_P2
2020/12/30 00:01:28;;;;;;;7.18;5.30;;;;;;;8.49;67.24;99508.81;5044405;28;20547;-86
2020/12/30 00:03:54;;;;;;;10.32;9.63;;;;;;;8.52;66.78;99521.94;5031418;28;20029;-86
2020/12/30 00:06:20;;;;;;;6.35;3.67;;;;;;;8.70;66.33;99513.91;5031168;28;20986;-86
2020/12/30 00:08:49;;;;;;;5.65;5.25;;;;;;;8.69;65.81;99492.44;5031867;28;20044;-85
2020/12/30 00:11:17;;;;;;;5.18;4.78;;;;;;;8.72;65.79;99489.28;5049116;28;20082;-86
2020/12/30 00:13:42;;;;;;;2.95;2.75;;;;;;;8.82;65.62;99508.63;5030942;28;20048;-85
2020/12/30 00:16:08;;;;;;;5.70;5.35;;;;;;;8.83;65.49;99502.16;5030826;28;20029;-85
2020/12/30 00:18:34;;;;;;;4.75;4.45;;;;;;;8.82;65.47;99518.63;5047336;28;20045;-84
2020/12/30 00:20:59;;;;;;;3.55;3.38;;;;;;;8.66;65.37;99490.16;5028477;28;20033;-85
2020/12/30 00:23:24;;;;;;;7.53;6.97;;;;;;;8.66;65.45;99501.81;5045648;28;20033;-84
2020/12/30 00:25:51;;;;;;;5.63;5.40;;;;;;;8.67;65.54;99502.69;5047413;28;20032;-84
2020/12/30 00:28:17;;;;;;;5.93;5.63;;;;;;;8.60;65.41;99498.13;5046601;28;20120;-84
2020/12/30 00:30:44;;;;;;;5.35;5.15;;;;;;;8.68;65.63;99504.31;5047015;28;20745;-84
2020/12/30 00:33:09;;;;;;;3.90;3.70;;;;;;;8.71;65.63;99517.44;5044084;28;20080;-85
2020/12/30 00:35:34;;;;;;;4.78;4.57;;;;;;;8.69;65.65;99514.13;5045821;28;20102;-84
2020/12/30 00:38:00;;;;;;;5.70;5.40;;;;;;;8.64;65.54;99506.66;5044747;28;20053;-83
2020/12/30 00:40:25;;;;;;;5.50;5.03;;;;;;;8.72;65.80;99516.41;5046726;28;20039;-84
2020/12/30 00:42:51;;;;;;;3.80;3.60;;;;;;;8.76;65.71;99526.59;5046583;28;20063;-84
2020/12/30 00:45:16;;;;;;;2.92;2.70;;;;;;;8.71;65.62;99512.00;5048425;28;20045;-84
2020/12/30 00:47:42;;;;;;;5.70;5.30;;;;;;;8.82;65.51;99533.03;5014743;28;20037;-83
2020/12/30 00:50:07;;;;;;;7.10;4.93;;;;;;;8.74;65.64;99520.56;5047006;28;20028;-83
2020/12/30 00:52:34;;;;;;;5.30;4.40;;;;;;;8.84;65.51;99539.06;5044966;28;20041;-83
2020/12/30 00:54:59;;;;;;;6.05;5.30;;;;;;;8.80;65.45;99537.00;5044040;28;20147;-83
2020/12/30 00:57:25;;;;;;;7.55;6.95;;;;;;;8.77;65.75;99530.97;5048975;28;20127;-84
2020/12/30 00:59:50;;;;;;;5.72;5.18;;;;;;;8.76;65.58;99525.78;5044056;28;20033;-84
2020/12/30 01:02:16;;;;;;;9.27;5.93;;;;;;;8.86;65.68;99544.25;5025081;28;20037;-84
2020/12/30 01:04:42;;;;;;;9.77;8.63;;;;;;;8.80;65.38;99537.81;5044017;28;20555;-84
2020/12/30 01:07:07;;;;;;;11.60;9.65;;;;;;;8.82;65.54;99545.72;5045417;28;20028;-83
2020/12/30 01:09:33;;;;;;;7.35;6.57;;;;;;;8.82;65.24;99543.03;5043774;28;20556;-83
2020/12/30 01:12:03;;;;;;;9.13;8.23;;;;;;;8.81;65.35;99542.19;5046554;28;20047;-83
2020/12/30 01:14:29;;;;;;;8.82;7.95;;;;;;;8.81;65.41;99547.63;5037145;28;20064;-83
2020/12/30 01:16:55;;;;;;;11.13;7.38;;;;;;;8.74;65.74;99542.25;5048552;28;20051;-84
2020/12/30 01:19:21;;;;;;;8.75;7.78;;;;;;;8.71;65.40;99544.53;5049190;28;20036;-84
2020/12/30 01:21:47;;;;;;;10.25;9.35;;;;;;;8.76;65.44;99555.59;5046616;28;20033;-84
2020/12/30 01:24:13;;;;;;;8.15;7.40;;;;;;;8.74;65.48;99558.50;5050404;28;20036;-84
2020/12/30 01:26:39;;;;;;;9.50;8.70;;;;;;;8.67;65.28;99563.13;5044412;28;20036;-83
2020/12/30 01:29:05;;;;;;;8.07;7.30;;;;;;;8.69;65.55;99565.63;5048376;28;20058;-84
2020/12/30 01:31:32;;;;;;;8.38;7.57;;;;;;;8.66;65.67;99560.63;5029369;28;20083;-85
2020/12/30 01:33:58;;;;;;;8.82;7.82;;;;;;;8.65;65.65;99550.81;5029941;28;20033;-84
2020/12/30 01:36:24;;;;;;;7.55;5.43;;;;;;;8.60;65.71;99540.63;5046225;28;20502;-83
2020/12/30 01:38:50;;;;;;;6.82;5.97;;;;;;;8.72;66.14;99554.34;5046234;28;20049;-84
2020/12/30 01:41:16;;;;;;;5.10;4.30;;;;;;;8.63;66.13;99539.38;5031123;28;20120;-84
2020/12/30 01:43:41;;;;;;;4.93;4.30;;;;;;;8.72;65.94;99548.94;5046865;28;20143;-84
2020/12/30 01:46:06;;;;;;;6.20;5.65;;;;;;;8.78;65.87;99558.91;5027256;28;20061;-84
2020/12/30 01:48:34;;;;;;;5.75;5.25;;;;;;;8.66;65.82;99539.78;5044797;28;20496;-84
2020/12/30 01:51:00;;;;;;;8.50;7.90;;;;;;;8.76;65.79;99558.28;5051732;28;20029;-84
2020/12/30 01:53:26;;;;;;;6.05;5.65;;;;;;;8.85;65.60;99575.13;5031011;28;20101;-83
2020/12/30 01:55:54;;;;;;;3.90;3.60;;;;;;;8.83;65.72;99574.50;5053356;28;20113;-82
2020/12/30 01:58:19;;;;;;;6.57;6.00;;;;;;;8.87;65.68;99584.72;5047925;28;20037;-84
2020/12/30 02:00:48;;;;;;;4.50;4.20;;;;;;;8.82;65.59;99570.97;5047301;28;20116;-83
2020/12/30 02:03:15;;;;;;;5.75;5.25;;;;;;;8.87;65.59;99584.72;5044005;28;20590;-85
2020/12/30 02:05:41;;;;;;;5.25;4.85;;;;;;;8.87;65.48;99589.31;5045929;28;20041;-83
2020/12/30 02:08:08;;;;;;;6.28;5.53;;;;;;;8.76;65.55;99571.84;5045418;28;20040;-84
2020/12/30 02:10:34;;;;;;;6.00;3.95;;;;;;;8.85;65.63;99592.25;5045000;28;20021;-84
2020/12/30 02:12:59;;;;;;;7.00;6.53;;;;;;;8.92;65.53;99593.03;5045417;28;20047;-83
2020/12/30 02:15:32;;;;;;;10.20;9.40;;;;;;;8.91;65.70;99598.66;5043081;28;20036;-83
2020/12/30 02:17:59;;;;;;;8.13;6.75;;;;;;;8.93;65.76;99600.13;5046120;28;20040;-82
2020/12/30 02:20:26;;;;;;;7.80;7.10;;;;;;;8.96;65.81;99598.84;5045508;28;20037;-84
2020/12/30 02:23:11;;;;;;;7.72;6.97;;;;;;;8.90;65.69;99584.28;5047567;28;20025;-82
2020/12/30 02:25:37;;;;;;;4.25;3.95;;;;;;;8.85;65.72;99581.41;5029657;28;20411;-82
2020/12/30 02:28:03;;;;;;;6.00;5.30;;;;;;;8.67;66.51;99578.56;5045567;28;20025;-81
2020/12/30 02:30:28;;;;;;;5.32;3.47;;;;;;;8.85;66.10;99591.38;5046697;28;20139;-82
2020/12/30 02:32:54;;;;;;;7.65;6.30;;;;;;;8.44;66.42;99570.94;5049013;28;20100;-83
2020/12/30 02:35:25;;;;;;;8.60;6.43;;;;;;;8.63;66.22;99571.91;5014773;28;20033;-83
2020/12/30 02:37:51;;;;;;;4.15;3.70;;;;;;;8.75;65.89;99595.38;5026528;28;20049;-86
2020/12/30 02:40:17;;;;;;;3.75;3.50;;;;;;;8.72;65.48;99559.75;5043908;28;20517;-81
2020/12/30 02:42:43;;;;;;;3.78;3.47;;;;;;;8.85;65.41;99594.94;5046105;28;20029;-82
2020/12/30 02:45:09;;;;;;;4.30;3.97;;;;;;;8.75;65.41;99581.84;5024168;28;20041;-82
2020/12/30 02:47:35;;;;;;;5.22;4.72;;;;;;;8.80;65.20;99575.78;5028807;28;20036;-82
2020/12/30 02:50:01;;;;;;;3.90;3.60;;;;;;;8.84;64.99;99598.69;5029340;28;20029;-82
2020/12/30 02:52:27;;;;;;;4.57;4.25;;;;;;;8.84;65.15;99597.88;5045293;28;20475;-82
2020/12/30 02:54:53;;;;;;;5.60;5.10;;;;;;;8.83;65.04;99599.75;5046153;28;20044;-82
2020/12/30 02:57:19;;;;;;;3.63;3.53;;;;;;;8.83;64.89;99597.03;5045432;28;20037;-81
2020/12/30 02:59:45;;;;;;;4.78;4.38;;;;;;;8.84;64.77;99601.41;5045854;28;20037;-82
2020/12/30 03:02:10;;;;;;;4.72;4.45;;;;;;;8.69;64.76;99581.88;5045054;28;20124;-81
2020/12/30 03:04:36;;;;;;;6.07;5.78;;;;;;;8.76;64.80;99594.34;5047656;28;20048;-81
2020/12/30 03:07:01;;;;;;;7.03;6.72;;;;;;;8.81;64.74;99611.88;5047097;28;20026;-81
2020/12/30 03:09:27;;;;;;;5.88;5.18;;;;;;;8.74;64.88;99615.44;5046767;28;20681;-81
2020/12/30 03:11:52;;;;;;;5.72;5.10;;;;;;;8.67;64.97;99605.66;5047770;28;20040;-81
2020/12/30 03:14:19;;;;;;;9.45;8.48;;;;;;;8.72;64.83;99613.97;5046234;28;20037;-81
2020/12/30 03:16:44;;;;;;;12.68;5.15;;;;;;;8.69;65.05;99606.28;5046293;28;20487;-81
2020/12/30 03:19:10;;;;;;;6.28;3.90;;;;;;;8.71;64.78;99620.44;5042819;28;20043;-81
2020/12/30 03:21:35;;;;;;;4.00;3.00;;;;;;;8.69;64.80;99609.81;5029230;28;20029;-81
2020/12/30 03:24:01;;;;;;;4.47;4.28;;;;;;;8.65;64.60;99615.88;5049806;28;20043;-81
2020/12/30 03:26:28;;;;;;;3.85;2.80;;;;;;;8.66;64.86;99626.50;5045520;28;20775;-81
2020/12/30 03:28:53;;;;;;;5.63;5.22;;;;;;;8.64;64.69;99616.94;5029812;28;20037;-81
2020/12/30 03:31:19;;;;;;;3.92;3.65;;;;;;;8.63;64.83;99610.66;5026426;28;20138;-81
2020/12/30 03:33:44;;;;;;;5.38;4.95;;;;;;;8.59;64.45;99615.69;5045070;28;20037;-82
2020/12/30 03:36:09;;;;;;;5.40;5.00;;;;;;;8.58;64.71;99619.44;5044535;28;20021;-81
2020/12/30 03:38:35;;;;;;;5.57;5.18;;;;;;;8.59;64.77;99620.28;5048964;28;20080;-82
2020/12/30 03:41:00;;;;;;;7.97;7.53;;;;;;;8.53;64.95;99610.31;5050554;28;20037;-82
2020/12/30 03:43:26;;;;;;;8.18;7.45;;;;;;;8.53;64.84;99616.53;5050164;28;20427;-81
2020/12/30 03:45:51;;;;;;;5.28;4.85;;;;;;;8.56;65.02;99610.69;5048899;28;20509;-81
2020/12/30 03:48:16;;;;;;;4.65;4.25;;;;;;;8.55;64.99;99610.91;5051003;28;20389;-81
2020/12/30 03:50:42;;;;;;;5.65;5.45;;;;;;;8.53;65.12;99619.25;5050495;28;20040;-82
2020/12/30 03:53:07;;;;;;;5.97;5.00;;;;;;;8.41;65.43;99601.97;5048999;28;20052;-81
2020/12/30 03:55:32;;;;;;;9.90;9.20;;;;;;;8.49;65.72;99615.28;5048407;28;20041;-81
2020/12/30 03:57:58;;;;;;;4.80;3.58;;;;;;;8.55;65.88;99619.03;5048252;28;20403;-82
2020/12/30 04:00:24;;;;;;;6.22;4.80;;;;;;;8.54;65.67;99618.22;5030948;28;20067;-82
2020/12/30 04:02:49;;;;;;;6.35;5.75;;;;;;;8.65;65.84;99629.41;5015422;28;20033;-82
2020/12/30 04:05:14;;;;;;;8.23;7.47;;;;;;;8.58;66.48;99643.81;5049400;28;20021;-82
2020/12/30 04:07:40;;;;;;;5.85;4.88;;;;;;;8.60;66.63;99622.78;5048435;28;20049;-82
2020/12/30 04:10:05;;;;;;;11.38;4.78;;;;;;;8.84;66.25;99633.94;5047650;28;20059;-86
2020/12/30 04:12:31;;;;;;;6.97;6.38;;;;;;;8.92;66.12;99628.25;5031086;28;20037;-85
2020/12/30 04:14:56;;;;;;;10.55;7.72;;;;;;;9.04;65.99;99638.44;5032038;28;20045;-82
2020/12/30 04:17:21;;;;;;;5.82;4.25;;;;;;;9.08;65.87;99637.81;5049132;28;20056;-84
2020/12/30 04:19:47;;;;;;;4.78;3.90;;;;;;;9.05;65.51;99634.66;5031853;28;20041;-84
2020/12/30 04:22:12;;;;;;;4.15;3.35;;;;;;;9.14;65.33;99642.38;5030834;28;20040;-85
2020/12/30 04:24:37;;;;;;;6.28;5.82;;;;;;;9.22;65.46;99646.69;5033047;28;20033;-86
2020/12/30 04:27:03;;;;;;;8.82;5.70;;;;;;;9.19;65.32;99639.00;5032897;28;20110;-85
2020/12/30 04:29:28;;;;;;;6.47;5.07;;;;;;;9.19;65.30;99639.00;5031045;28;20041;-85
2020/12/30 04:31:54;;;;;;;5.53;5.20;;;;;;;9.20;65.30;99634.41;5030678;28;20044;-85
2020/12/30 04:34:19;;;;;;;9.35;7.95;;;;;;;9.17;65.45;99638.38;5031830;28;20036;-84
2020/12/30 04:36:44;;;;;;;10.43;9.75;;;;;;;9.20;65.50;99643.34;5048864;28;20025;-84
2020/12/30 04:39:10;;;;;;;6.88;6.03;;;;;;;9.23;65.30;99651.06;5046880;28;20049;-87
2020/12/30 04:41:38;;;;;;;6.82;6.00;;;;;;;9.28;65.49;99664.81;5049760;28;20451;-86
2020/12/30 04:44:05;;;;;;;5.13;2.15;;;;;;;9.14;65.77;99652.34;5049051;28;20124;-89
2020/12/30 04:46:30;;;;;;;9.50;7.10;;;;;;;9.25;65.67;99669.84;5051003;28;20102;-88
2020/12/30 04:48:57;;;;;;;9.27;5.57;;;;;;;9.19;65.86;99657.13;5050818;28;20041;-88
2020/12/30 04:51:24;;;;;;;8.48;7.35;;;;;;;9.31;65.32;99666.25;5049230;28;20017;-89
2020/12/30 04:53:51;;;;;;;6.65;6.35;;;;;;;9.27;65.34;99656.91;5053580;28;20036;-90
2020/12/30 04:56:17;;;;;;;6.25;4.40;;;;;;;9.23;65.21;99659.19;5060434;28;20021;-91
2020/12/30 04:58:46;;;;;;;5.22;4.82;;;;;;;9.17;65.39;99657.34;5037310;28;20033;-84
2020/12/30 05:01:17;;;;;;;5.63;5.25;;;;;;;9.03;64.93;99644.91;5048658;28;20039;-89
2020/12/30 05:03:46;;;;;;;6.57;6.18;;;;;;;9.27;65.05;99678.59;5047539;28;20053;-89
2020/12/30 05:06:15;;;;;;;5.72;5.32;;;;;;;9.27;64.87;99662.31;5049293;28;20025;-87
2020/12/30 05:08:40;;;;;;;4.22;3.92;;;;;;;9.26;64.68;99671.50;5048916;28;20429;-86
2020/12/30 05:11:06;;;;;;;3.70;3.30;;;;;;;9.11;64.63;99660.94;5016265;28;20021;-85
2020/12/30 05:13:31;;;;;;;5.20;4.25;;;;;;;9.12;64.72;99658.00;5033023;28;20116;-87
2020/12/30 05:15:59;;;;;;;5.40;3.55;;;;;;;8.95;64.94;99662.25;5030003;28;20036;-85
2020/12/30 05:18:25;;;;;;;6.95;4.32;;;;;;;8.94;65.14;99655.16;5048418;28;20025;-86
2020/12/30 05:20:50;;;;;;;4.35;2.95;;;;;;;8.88;65.54;99643.31;5031750;28;20501;-86
2020/12/30 05:23:16;;;;;;;3.63;3.33;;;;;;;8.96;65.94;99656.63;5032387;28;20032;-85
2020/12/30 05:25:43;;;;;;;5.00;4.60;;;;;;;8.92;65.49;99662.69;5047319;28;20037;-87
2020/12/30 05:28:13;;;;;;;5.72;3.83;;;;;;;9.06;65.83;99675.13;5027493;28;20376;-82
2020/12/30 05:30:43;;;;;;;5.93;5.47;;;;;;;9.11;65.74;99667.22;5046877;28;20041;-85
2020/12/30 05:33:09;;;;;;;4.78;4.22;;;;;;;9.23;65.58;99685.50;5044333;28;20044;-85
2020/12/30 05:35:35;;;;;;;7.32;5.60;;;;;;;9.14;65.54;99671.34;5047092;28;20040;-84
2020/12/30 05:38:01;;;;;;;5.18;3.25;;;;;;;9.28;65.44;99691.97;5044192;28;20083;-84
2020/12/30 05:40:31;;;;;;;5.95;4.85;;;;;;;9.22;65.57;99670.25;5047621;28;20064;-84
2020/12/30 05:43:11;;;;;;;10.73;9.63;;;;;;;9.27;65.37;99686.75;5046647;28;20076;-83
2020/12/30 05:45:47;;;;;;;6.65;6.07;;;;;;;9.34;65.37;99689.41;5045614;28;20039;-87
2020/12/30 05:48:13;;;;;;;8.32;7.80;;;;;;;9.24;65.44;99687.19;5049532;28;20088;-87
2020/12/30 05:50:56;;;;;;;3.25;2.90;;;;;;;9.31;65.40;99699.66;5050285;28;20501;-87
2020/12/30 05:53:23;;;;;;;5.70;5.25;;;;;;;9.31;65.37;99699.66;5046249;28;20048;-85
2020/12/30 05:55:50;;;;;;;6.53;6.13;;;;;;;9.36;65.19;99700.88;5047665;28;20025;-85
2020/12/30 05:58:17;;;;;;;5.63;5.32;;;;;;;9.38;65.42;99706.94;5045395;28;20112;-85
2020/12/30 06:00:44;;;;;;;3.50;2.83;;;;;;;9.25;65.33;99681.53;5043393;28;20044;-85
2020/12/30 06:03:13;;;;;;;5.40;4.80;;;;;;;9.37;65.15;99700.66;5054867;28;20037;-84
2020/12/30 06:05:39;;;;;;;8.65;4.00;;;;;;;9.34;65.06;99697.56;5046117;28;20029;-83
2020/12/30 06:08:04;;;;;;;7.60;4.95;;;;;;;9.34;64.98;99713.84;5045898;28;20028;-85
2020/12/30 06:10:31;;;;;;;9.52;8.05;;;;;;;9.33;65.32;99721.16;5027771;28;20033;-85
2020/12/30 06:12:59;;;;;;;7.53;6.88;;;;;;;9.31;65.28;99725.94;5047620;28;20110;-85
2020/12/30 06:15:30;;;;;;;3.47;3.17;;;;;;;9.30;65.22;99721.59;5029335;28;20064;-85
2020/12/30 06:17:57;;;;;;;6.88;6.22;;;;;;;9.26;65.38;99715.72;5047207;28;20056;-84
2020/12/30 06:20:41;;;;;;;11.43;8.48;;;;;;;9.22;65.53;99722.66;5060514;28;20045;-84
2020/12/30 06:23:09;;;;;;;5.07;4.57;;;;;;;9.34;65.39;99730.94;5028105;28;20075;-83
2020/12/30 06:25:39;;;;;;;7.50;6.28;;;;;;;9.29;65.43;99726.16;5046744;28;20024;-84
2020/12/30 06:28:13;;;;;;;5.93;5.50;;;;;;;9.28;65.17;99727.22;5046215;28;20474;-84
2020/12/30 06:30:40;;;;;;;5.75;5.35;;;;;;;9.35;65.58;99727.19;5041378;28;20502;-84
2020/12/30 06:33:07;;;;;;;5.05;3.83;;;;;;;9.36;65.19;99733.44;5045758;28;20071;-82
2020/12/30 06:35:35;;;;;;;7.10;4.55;;;;;;;9.30;65.34;99735.97;5046063;28;20078;-82
2020/12/30 06:38:26;;;;;;;5.10;4.65;;;;;;;9.24;64.96;99736.84;5045078;28;20049;-82
2020/12/30 06:40:53;;;;;;;5.55;4.78;;;;;;;9.26;65.06;99742.03;5047231;28;20040;-83
2020/12/30 06:43:44;;;;;;;7.65;6.90;;;;;;;9.23;65.22;99748.72;5044804;28;20490;-83
2020/12/30 06:46:11;;;;;;;7.72;6.57;;;;;;;9.24;65.04;99750.41;5047835;28;20632;-83
2020/12/30 06:48:56;;;;;;;7.85;7.07;;;;;;;9.18;65.10;99748.53;5042302;28;20467;-83
2020/12/30 06:51:22;;;;;;;10.02;8.75;;;;;;;9.20;65.10;99751.84;5045068;28;20025;-83
2020/12/30 06:53:52;;;;;;;11.23;10.32;;;;;;;9.04;65.41;99741.50;5046295;28;20041;-83
2020/12/30 06:56:40;;;;;;;10.93;9.40;;;;;;;9.07;65.28;99758.19;5024258;28;20038;-82
2020/12/30 06:59:06;;;;;;;7.60;6.95;;;;;;;9.14;65.25;99775.28;5043172;28;20747;-83
2020/12/30 07:01:58;;;;;;;6.88;6.28;;;;;;;9.13;65.31;99799.91;5043431;28;20129;-82
2020/12/30 07:04:24;;;;;;;;;;;;;;;9.08;64.60;99799.69;5048435;28;20036;-90
2020/12/30 07:06:50;;;;;;;7.03;6.43;;;;;;;8.94;64.73;99788.03;5052021;28;19958;-88
2020/12/30 07:09:16;;;;;;;11.88;10.98;;;;;;;8.78;64.70;99782.00;5044712;28;20060;-87
2020/12/30 07:11:48;;;;;;;8.00;5.07;;;;;;;8.57;66.08;99798.50;5052697;28;20033;-86
2020/12/30 07:14:28;;;;;;;9.25;4.90;;;;;;;8.67;65.84;99779.13;5050993;28;20021;-85
2020/12/30 07:17:07;;;;;;;10.07;4.75;;;;;;;8.78;65.57;99771.16;5050417;28;20059;-86
2020/12/30 07:19:37;;;;;;;4.82;4.28;;;;;;;8.79;65.36;99777.44;5043244;28;20033;-86
2020/12/30 07:22:10;;;;;;;7.83;7.13;;;;;;;8.83;65.38;99789.50;5048864;28;20048;-85
2020/12/30 07:24:41;;;;;;;6.20;5.70;;;;;;;8.69;64.93;99766.19;5045308;28;20885;-86
2020/12/30 07:27:13;;;;;;;8.88;8.27;;;;;;;8.84;64.89;99783.06;5050442;28;20021;-85
2020/12/30 07:29:43;;;;;;;5.53;4.90;;;;;;;8.55;64.94;99763.47;5065742;28;20044;-88
2020/12/30 07:32:09;;;;;;;4.88;3.65;;;;;;;8.67;65.11;99795.38;5048144;28;20087;-84
2020/12/30 07:34:39;;;;;;;7.45;6.75;;;;;;;8.55;65.28;99789.75;5033297;28;20021;-86
2020/12/30 07:37:05;;;;;;;7.18;6.60;;;;;;;8.50;65.66;99798.50;5046116;28;20206;-87
2020/12/30 07:39:40;;;;;;;8.15;7.45;;;;;;;8.52;65.82;99807.25;5034458;28;20045;-86
2020/12/30 07:42:13;;;;;;;8.55;7.75;;;;;;;8.59;65.36;99807.28;5047487;28;20048;-86
2020/12/30 07:44:49;;;;;;;8.20;7.38;;;;;;;8.53;65.17;99795.38;5066294;28;20626;-86
2020/12/30 07:47:16;;;;;;;13.30;12.27;;;;;;;8.60;64.96;99812.50;5050054;28;20029;-87
2020/12/30 07:49:42;;;;;;;11.70;10.55;;;;;;;8.46;65.30;99816.22;5052023;28;20120;-85
2020/12/30 07:52:08;;;;;;;11.52;10.35;;;;;;;8.45;65.32;99822.69;5046651;28;20041;-84
2020/12/30 07:54:33;;;;;;;14.10;13.00;;;;;;;8.45;64.95;99822.69;5043673;28;20029;-84
2020/12/30 07:57:02;;;;;;;13.30;11.38;;;;;;;8.42;64.89;99828.50;5048614;28;20048;-83
2020/12/30 07:59:27;;;;;;;15.50;13.98;;;;;;;8.28;64.99;99813.25;5046012;28;20694;-83
2020/12/30 08:01:57;;;;;;;15.75;13.25;;;;;;;8.28;65.18;99827.66;5048171;28;20036;-84
2020/12/30 08:04:23;;;;;;;17.45;12.93;;;;;;;8.29;65.24;99836.59;5050582;28;20025;-83
2020/12/30 08:06:48;;;;;;;16.90;15.25;;;;;;;8.31;65.22;99839.94;5041719;28;20570;-83
2020/12/30 08:09:14;;;;;;;18.27;16.38;;;;;;;8.28;65.38;99845.75;5048596;28;20387;-83
2020/12/30 08:11:51;;;;;;;23.42;20.85;;;;;;;8.29;65.09;99842.84;5051853;28;20739;-83
2020/12/30 08:14:18;;;;;;;19.98;18.08;;;;;;;8.24;65.01;99840.75;5040381;28;20039;-83
2020/12/30 08:17:00;;;;;;;19.08;17.10;;;;;;;8.22;64.90;99842.03;5049241;28;20040;-84
2020/12/30 08:19:35;;;;;;;21.48;19.48;;;;;;;8.23;64.76;99855.34;5047406;28;20843;-82
2020/12/30 08:22:05;;;;;;;20.67;18.35;;;;;;;8.19;64.83;99859.50;5048818;28;20055;-83
2020/12/30 08:24:32;;;;;;;18.60;16.30;;;;;;;8.15;64.75;99846.59;5049214;28;20029;-84
2020/12/30 08:26:58;;;;;;;20.40;18.42;;;;;;;8.17;64.93;99861.59;5046850;28;20116;-82
2020/12/30 08:29:32;;;;;;;19.42;17.45;;;;;;;8.18;64.91;99867.84;5044086;28;20084;-83
2020/12/30 08:32:02;;;;;;;18.45;16.65;;;;;;;8.18;64.83;99865.94;5063179;28;20040;-83
2020/12/30 08:34:33;;;;;;;20.25;18.33;;;;;;;8.13;64.66;99865.75;5047145;28;20032;-83
2020/12/30 08:37:15;;;;;;;20.70;18.52;;;;;;;8.15;64.55;99879.09;5049233;28;20028;-83
2020/12/30 08:40:05;;;;;;;19.70;17.65;;;;;;;8.12;64.61;99883.03;5048407;28;20406;-83
2020/12/30 08:42:51;;;;;;;17.70;15.88;;;;;;;8.16;64.67;99881.59;5046961;28;20082;-83
2020/12/30 08:45:24;;;;;;;15.25;13.00;;;;;;;8.13;64.72;99882.00;5048506;28;20164;-83
2020/12/30 08:47:53;;;;;;;15.98;14.38;;;;;;;8.16;64.66;99888.88;5048955;28;20044;-85
2020/12/30 08:50:20;;;;;;;17.48;15.77;;;;;;;8.03;64.56;99871.56;5050239;28;20727;-84
2020/12/30 08:52:46;;;;;;;17.90;16.00;;;;;;;8.02;64.98;99869.88;5048646;28;20056;-84
2020/12/30 08:55:11;;;;;;;20.13;17.48;;;;;;;8.39;64.80;99885.81;5047074;28;20042;-83
2020/12/30 08:57:43;;;;;;;21.38;19.17;;;;;;;9.60;64.97;99895.53;5049244;28;20487;-83
2020/12/30 09:00:22;;;;;;;21.48;18.60;;;;;;;10.61;61.30;99895.91;5042448;28;20044;-83
2020/12/30 09:02:50;;;;;;;20.40;17.38;;;;;;;10.72;60.34;99903.38;5047553;28;20029;-83
2020/12/30 09:05:31;;;;;;;20.15;16.60;;;;;;;10.86;60.58;99887.78;5049531;28;20080;-83
2020/12/30 09:08:14;;;;;;;19.98;17.95;;;;;;;11.01;59.45;99903.75;5043246;28;20020;-83
2020/12/30 09:10:41;;;;;;;19.45;17.55;;;;;;;10.67;59.79;99910.50;5048058;28;20036;-83
2020/12/30 09:13:20;;;;;;;15.50;13.80;;;;;;;10.41;60.78;99925.09;5045338;28;20032;-83
2020/12/30 09:15:54;;;;;;;16.05;14.48;;;;;;;10.22;61.29;99916.81;5044008;28;20415;-83
2020/12/30 09:18:20;;;;;;;14.10;11.68;;;;;;;10.08;62.05;99920.66;5062260;28;20082;-83
2020/12/30 09:20:46;;;;;;;14.05;12.40;;;;;;;9.93;62.24;99902.75;5044091;28;20102;-83
2020/12/30 09:23:11;;;;;;;11.65;10.45;;;;;;;9.91;62.36;99895.88;5040407;28;20033;-83
2020/12/30 09:25:40;;;;;;;13.10;11.70;;;;;;;9.94;62.26;99925.31;5030467;28;20060;-82
2020/12/30 09:28:16;;;;;;;13.35;12.15;;;;;;;9.89;62.62;99934.09;5047467;28;20276;-83
2020/12/30 09:30:42;;;;;;;11.65;10.32;;;;;;;9.91;62.91;99934.72;5046245;28;20045;-83
2020/12/30 09:33:14;;;;;;;15.88;10.25;;;;;;;10.19;63.24;99938.97;5028087;28;20033;-82
2020/12/30 09:35:40;;;;;;;12.85;11.52;;;;;;;10.48;63.04;99925.91;5047338;28;20056;-83
2020/12/30 09:38:05;;;;;;;15.30;13.32;;;;;;;10.58;62.75;99926.25;5045962;28;20059;-83
2020/12/30 09:40:39;;;;;;;11.93;9.55;;;;;;;10.79;62.70;99940.56;5046557;28;20080;-83
2020/12/30 09:43:25;;;;;;;16.85;10.95;;;;;;;10.97;62.78;99932.47;5049560;28;20032;-83
2020/12/30 09:46:01;;;;;;;10.95;9.82;;;;;;;11.17;62.09;99932.28;5046206;28;20446;-83
2020/12/30 09:48:29;;;;;;;12.57;9.00;;;;;;;11.35;62.27;99941.56;5047704;28;20040;-82
2020/12/30 09:50:55;;;;;;;14.10;7.97;;;;;;;11.32;61.72;99934.66;5047180;28;20048;-83
2020/12/30 09:53:23;;;;;;;12.20;6.75;;;;;;;11.57;62.06;99926.47;5046325;28;20033;-82
2020/12/30 09:55:50;;;;;;;11.82;6.57;;;;;;;12.36;61.45;99936.66;5044261;28;20043;-82
2020/12/30 09:58:16;;;;;;;9.40;7.00;;;;;;;12.70;59.96;99937.03;5049779;28;20051;-82
2020/12/30 10:00:42;;;;;;;9.10;5.47;;;;;;;12.43;59.25;99936.56;5044939;28;20367;-82
2020/12/30 10:03:08;;;;;;;8.82;4.75;;;;;;;12.29;59.41;99930.47;5049238;28;20394;-83
2020/12/30 10:05:33;;;;;;;11.90;5.65;;;;;;;12.28;60.11;99931.50;5045715;28;20040;-82
2020/12/30 10:07:59;;;;;;;9.23;5.78;;;;;;;12.41;60.14;99936.78;5047824;28;20029;-82
2020/12/30 10:10:25;;;;;;;9.98;4.38;;;;;;;12.47;59.39;99935.03;5028035;28;20475;-82
2020/12/30 10:12:50;;;;;;;7.30;4.50;;;;;;;12.27;58.72;99925.22;5047544;28;20024;-82
2020/12/30 10:15:19;;;;;;;2.58;2.03;;;;;;;12.14;58.88;99936.31;5047935;28;20108;-82
2020/12/30 10:17:44;;;;;;;5.47;2.85;;;;;;;11.80;59.07;99916.78;5046558;28;20132;-82
2020/12/30 10:20:11;;;;;;;4.30;2.97;;;;;;;11.71;59.90;99924.44;5047792;28;20616;-82
2020/12/30 10:22:37;;;;;;;4.03;2.67;;;;;;;12.71;60.33;99923.16;5045600;28;20043;-82
2020/12/30 10:25:04;;;;;;;6.45;2.65;;;;;;;13.71;58.23;99941.63;5048089;28;20106;-82
2020/12/30 10:27:30;;;;;;;4.93;1.70;;;;;;;14.45;55.55;99943.69;5048394;28;20035;-82
2020/12/30 10:29:55;;;;;;;3.97;1.75;;;;;;;14.87;52.94;99946.13;5047059;28;20024;-81
2020/12/30 10:32:21;;;;;;;4.00;2.63;;;;;;;15.17;50.75;99943.09;5049790;28;20041;-83
2020/12/30 10:34:48;;;;;;;3.88;1.10;;;;;;;14.96;50.60;99941.91;5045087;28;20067;-82
2020/12/30 10:37:16;;;;;;;3.22;1.65;;;;;;;14.84;51.53;99952.94;5027123;28;20037;-81
2020/12/30 10:39:41;;;;;;;4.50;1.58;;;;;;;14.81;51.77;99947.13;5046711;28;20057;-82
2020/12/30 10:42:07;;;;;;;2.60;1.42;;;;;;;14.57;51.63;99933.53;5047798;28;20037;-81
2020/12/30 10:44:32;;;;;;;3.03;1.20;;;;;;;13.90;51.66;99950.50;5045966;28;20454;-82
2020/12/30 10:46:58;;;;;;;2.33;1.90;;;;;;;13.57;53.04;99950.06;5025959;28;20040;-83
2020/12/30 10:49:23;;;;;;;2.10;1.10;;;;;;;13.32;53.87;99944.81;5046003;28;20036;-82
2020/12/30 10:51:50;;;;;;;4.63;1.27;;;;;;;13.18;54.83;99957.88;5024312;28;20087;-81
2020/12/30 10:54:16;;;;;;;3.67;1.10;;;;;;;13.14;55.63;99953.94;5040108;28;20029;-82
2020/12/30 10:57:00;;;;;;;5.32;2.03;;;;;;;12.90;55.91;99953.09;5044835;28;20037;-82
2020/12/30 10:59:26;;;;;;;7.28;2.67;;;;;;;12.92;56.38;99961.84;5045597;28;20071;-82
2020/12/30 11:01:52;;;;;;;3.30;2.60;;;;;;;12.94;55.40;99956.16;5045096;28;20399;-87
2020/12/30 11:04:18;;;;;;;5.53;1.67;;;;;;;12.71;55.17;99971.41;5052462;28;20036;-83
2020/12/30 11:06:44;;;;;;;3.53;1.60;;;;;;;12.75;55.94;99956.25;5046627;28;20029;-82
2020/12/30 11:09:10;;;;;;;3.70;1.60;;;;;;;13.00;55.62;99963.41;5042020;28;20480;-83
2020/12/30 11:11:36;;;;;;;6.72;1.55;;;;;;;13.13;55.72;99959.63;5045146;28;20709;-82
2020/12/30 11:14:02;;;;;;;5.68;1.63;;;;;;;12.86;55.82;99962.78;5013969;28;20609;-86
2020/12/30 11:16:27;;;;;;;4.88;2.30;;;;;;;12.65;56.32;99953.22;5028086;28;20036;-83
2020/12/30 11:18:53;;;;;;;8.15;2.65;;;;;;;12.57;56.28;99954.38;5044483;28;20041;-84
2020/12/30 11:21:18;;;;;;;7.45;2.03;;;;;;;12.34;56.67;99966.88;5047439;28;20040;-83
2020/12/30 11:23:45;;;;;;;3.97;1.98;;;;;;;11.89;57.73;99966.34;5046931;28;20029;-85
2020/12/30 11:26:10;;;;;;;5.40;2.15;;;;;;;12.06;57.89;99961.16;5047483;28;20040;-83
2020/12/30 11:28:36;;;;;;;3.20;2.17;;;;;;;12.03;57.71;99969.78;5025164;28;20399;-83
2020/12/30 11:31:01;;;;;;;8.20;1.55;;;;;;;11.93;57.88;99962.97;5044195;28;20060;-83
2020/12/30 11:33:27;;;;;;;11.23;3.25;;;;;;;11.96;58.31;99964.41;5047276;28;20028;-84
2020/12/30 11:35:52;;;;;;;8.35;3.05;;;;;;;11.91;58.05;99947.88;5044163;28;20043;-84
2020/12/30 11:38:17;;;;;;;6.25;3.42;;;;;;;12.21;58.26;99953.41;5047635;28;20444;-91
2020/12/30 11:40:43;;;;;;;12.73;4.03;;;;;;;12.42;57.13;99971.19;5030889;28;20041;-87